• Join FlightAware (Why Join?)
  • Login
  • US Flag 
02:09AM EST


 

Airport Tracker/Info


-or-


 

Live Flight TrackerFlight Track Log ✈ SWA1377 ✈ 19-Apr-2013 ✈ KMDW - KBUF

Flight Track Log - Related Links

Times and Time Zones

All times are in EDT time to prevent confusion due to time zone crossing. See the SWA1377 flight status page for this flight to view local times or setup timezone preferences in your user account.

Time Position Orientation Groundspeed Altitude Reporting Facility
EDT Latitude Longitude Course Direction KTS MPH feet Rate Location/Type
10:26AM 41.8167 -87.7667 90° East 252 290 3,100  Level Chicago TRACON
10:27AM 41.8167 -87.6667 90° East 284 327 5,600 3,000 Climbing Chicago TRACON
10:28AM 41.8039 -87.5247 97° East 310 357 9,900 3,435 Climbing Chicago Center
10:29AM 41.7936 -87.4033 96° East 326 375 13,500 2,903 Climbing Chicago Center
10:30AM 41.7806 -87.2672 97° East 372 428 15,900 2,855 Climbing Chicago Center
10:31AM 41.7500 -86.8839 90° East  Level FlightAware Approximate
10:31AM 41.7661 -87.1181 97° East 402 463 19,400  Level Chicago Center
10:32AM 41.7625 -86.9642 92° East 422 486 22,500 2,732 Climbing Chicago Center
10:33AM 41.7647 -86.7681 89° East 444 511 25,000 2,274 Climbing Chicago Center
10:34AM 41.7878 -86.5908 80° East 494 568 27,200 1,984 Climbing Chicago Center
10:35AM 41.8217 -86.4094 76° East 503 579 29,100 1,951 Climbing Chicago Center
10:36AM 41.8542 -86.2250 77° East 506 582 31,200 2,032 Climbing Chicago Center
10:37AM 41.8900 -86.0419 75° East 507 583 33,300 1,355 Climbing Chicago Center
10:38AM 41.9244 -85.8622 75° East 500 575 34,000 629 Climbing Chicago Center
10:39AM 41.9600 -85.6825 75° East 496 571 34,600 774 Climbing Chicago Center
10:40AM 41.9944 -85.4606 78° East 501 577 35,600 1,030 Climbing Chicago Center
10:41AM 42.0069 -85.3456 82° East 499 574 36,300 866 Climbing Cleveland Center
10:42AM 42.0250 -85.1594 82° East 515 593 37,000 350 Climbing Cleveland Center
10:43AM 42.0447 -84.9764 82° East 515 593 37,000 400 Level Cleveland Center
10:44AM 42.0608 -84.8208 82° East 515 593 37,800 800 Climbing Cleveland Center
10:45AM 42.0808 -84.6150 82° East 515 593 38,600 600 Climbing Cleveland Center
10:46AM 42.1022 -84.4203 82° East 515 593 39,000 200 Climbing Cleveland Center
10:47AM 42.1175 -84.2056 84° East 522 601 39,000 -50 Level Cleveland Center
10:48AM 42.1358 -84.0161 83° East 516 594 38,900 -600 Descending Cleveland Center
10:49AM 42.1539 -83.8294 83° East 510 587 37,800 -950 Descending Cleveland Center
10:50AM 42.1714 -83.6456 83° East 500 575 37,000 -400 Descending Cleveland Center
10:51AM 42.1886 -83.4586 83° East 500 575 37,000 -403 Level Cleveland Center
10:52AM 42.2036 -83.2769 84° East 492 566 36,200 -807 Descending Cleveland Center
10:53AM 42.2175 -83.1150 83° East 483 556 35,400 -893 Descending Cleveland Center
10:54AM 42.2336 -82.9472 83° East 470 541 34,400 -992 Descending Cleveland Center
10:55AM 42.2494 -82.7767 83° East 465 535 33,400 -706 Descending Cleveland Center
10:56AM 42.2633 -82.6006 84° East 465 535 33,000 -200 Descending Cleveland Center
10:57AM 42.2764 -82.4297 84° East 460 529 33,000  Level Cleveland Center
10:58AM 42.2897 -82.2533 84° East 460 529 33,000  Level Cleveland Center
10:59AM 42.3044 -82.0825 83° East 460 529 33,000 -100 Level Cleveland Center
11:00AM 42.3192 -81.9114 83° East 460 529 32,800 -595 Descending Cleveland Center
11:01AM 42.3317 -81.7206 85° East 460 529 31,800 -1,000 Descending Cleveland Center
11:02AM 42.3456 -81.5522 84° East 460 529 30,800 -1,000 Descending Cleveland Center
11:03AM 42.3575 -81.3783 85° East 456 525 29,800 -1,000 Descending Cleveland Center
11:04AM 42.3689 -81.2128 85° East 456 525 28,800 -1,050 Descending Cleveland Center
11:05AM 42.3822 -81.0414 84° East 456 525 27,700 -900 Descending Cleveland Center
11:06AM 42.3953 -80.8728 84° East 456 525 27,000 -650 Descending Cleveland Center
11:07AM 42.4039 -80.7069 86° East 447 514 26,400 -850 Descending Cleveland Center
11:08AM 42.4122 -80.5664 85° East 435 501 25,300 -1,450 Descending Cleveland Center
11:09AM 42.4247 -80.4061 84° East 425 489 23,500 -1,700 Descending Cleveland Center
11:10AM 42.4328 -80.2542 86° East 414 476 21,900 -1,600 Descending Cleveland Center
11:11AM 42.4447 -80.0992 84° East 414 476 20,300 -1,850 Descending Cleveland Center
11:12AM 42.4500 -79.9444 87° East 414 476 18,200 -1,916 Descending Cleveland Center
11:13AM 42.4678 -79.7783 82° East 403 464 16,500 -1,500 Descending Cleveland Center
11:14AM 42.4750 -79.6289 86° East 403 464 15,200 -1,438 Descending Cleveland Center
11:15AM 42.4800 -79.4881 87° East 390 449 13,600 -1,650 Descending Cleveland Center
11:16AM 42.5353 -79.3717 57° Northeast 359 413 11,900 -1,650 Descending Cleveland Center
11:17AM 42.6072 -79.2800 43° Northeast 346 398 10,300 -1,800 Descending Cleveland Center
11:18AM 42.6789 -79.1853 44° Northeast 346 398 8,300 -1,650 Descending Cleveland Center
11:19AM 42.7486 -79.0903 45° Northeast 346 398 7,000 -655 Descending Cleveland Center
11:20AM 42.8183 -79.0011 43° Northeast 346 398 7,000  Level Cleveland Center
11:21AM 42.8858 -78.9142 43° Northeast 341 392 7,000 -500 Level Cleveland Center
11:22AM 42.9533 -78.8244 44° Northeast 336 387 6,000 -700 Descending Cleveland Center
11:23AM 43.0147 -78.7489 42° Northeast 321 369 5,600 -1,056 Descending Cleveland Center
11:24AM 43.0667 -78.6667 49° Northeast 282 325 3,800 -1,258 Descending Buffalo TRACON
11:25AM 43.0500 -78.6167 115° Southeast 131 151 3,000 -650 Descending Buffalo TRACON
11:26AM 43.0167 -78.6333 200° South 118 136 2,500 -571 Descending Buffalo TRACON
11:27AM 42.9833 -78.6667 216° Southwest 121 139 1,800 -667 Descending Buffalo TRACON
11:28AM 42.9667 -78.7000 236° Southwest 133 153 1,100 -700 Descending Buffalo TRACON